Time;durP1;ratioP1;P1;durP2;ratioP2;P2;SDS_P1;SDS_P2;PMS_P1;PMS_P2;Temp;Humidity;BMP_temperature;BMP_pressure;BME280_temperature;BME280_humidity;BME280_pressure;Samples;Min_cycle;Max_cycle;Signal;HPM_P1;HPM_P2
2022/11/03 12:46:30;;;;;;;11.47;1.83;;;;;;;23.64;85.17;101945.28;5043460;27;2594224;-89
2022/11/03 12:48:58;;;;;;;9.43;1.90;;;;;;;23.59;85.80;101952.69;5076917;28;20211;-89
2022/11/03 12:51:25;;;;;;;12.40;2.30;;;;;;;23.57;86.63;101952.09;5060197;28;20489;-89
2022/11/03 12:53:53;;;;;;;6.60;1.63;;;;;;;23.64;87.31;101955.59;5093203;28;20492;-89
2022/11/03 12:56:21;;;;;;;7.93;1.80;;;;;;;23.52;85.71;101940.84;5076110;28;20469;-89
2022/11/03 12:58:49;;;;;;;4.90;1.40;;;;;;;23.34;85.47;101939.91;5110674;28;20883;-89
2022/11/03 13:01:17;;;;;;;9.40;4.20;;;;;;;23.22;86.42;101936.34;5059975;28;20515;-89
2022/11/03 13:03:45;;;;;;;12.00;4.10;;;;;;;23.21;87.61;101922.63;5059911;28;20489;-89
2022/11/03 13:06:14;;;;;;;10.43;3.73;;;;;;;23.35;87.95;101932.41;5060429;28;20814;-89
2022/11/03 13:08:42;;;;;;;15.57;4.60;;;;;;;23.35;88.04;101924.88;5093106;28;20990;-89
2022/11/03 13:13:59;;;;;;;12.80;2.70;;;;;;;23.43;88.18;101937.59;5110804;28;20443;-89
2022/11/03 13:16:27;;;;;;;15.40;4.20;;;;;;;23.43;88.06;101932.84;5060058;28;20474;-89
2022/11/03 13:18:56;;;;;;;18.47;4.03;;;;;;;23.46;88.67;101931.50;5059386;28;20440;-89
2022/11/03 13:21:32;;;;;;;16.33;2.43;;;;;;;23.57;89.17;101936.19;5092915;28;20436;-90
2022/11/03 13:24:00;;;;;;;9.00;1.90;;;;;;;23.75;87.84;101923.94;5062264;28;20845;-89
2022/11/03 13:26:28;;;;;;;10.67;1.80;;;;;;;23.84;85.77;101919.66;5059231;28;20854;-90
2022/11/03 13:28:57;;;;;;;12.23;1.53;;;;;;;23.93;84.75;101920.91;5060270;28;20942;-89
2022/11/03 13:31:24;;;;;;;9.97;1.90;;;;;;;24.00;84.17;101915.16;5059381;28;20480;-89
2022/11/03 13:33:53;;;;;;;8.07;1.87;;;;;;;23.88;83.84;101918.03;5076180;28;20935;-89
2022/11/03 13:36:21;;;;;;;6.57;1.50;;;;;;;23.65;83.97;101924.63;5075535;28;20481;-89
2022/11/03 13:38:49;;;;;;;9.60;1.47;;;;;;;23.43;84.37;101924.47;5059403;28;20435;-90
2022/11/03 13:41:19;;;;;;;7.87;1.83;;;;;;;23.18;84.28;101912.81;5058161;28;20531;-89
2022/11/03 13:43:47;;;;;;;13.33;2.23;;;;;;;22.95;85.52;101918.47;5075538;28;20496;-89
2022/11/03 13:46:15;;;;;;;9.33;1.67;;;;;;;22.75;86.79;101914.16;5054968;28;20565;-89
2022/11/03 13:48:42;;;;;;;10.50;1.97;;;;;;;22.61;87.28;101907.16;5055043;28;20433;-89
2022/11/03 13:51:32;;;;;;;8.80;1.30;;;;;;;22.39;86.89;101903.31;5061097;28;20536;-90
2022/11/03 13:54:00;;;;;;;8.90;2.50;;;;;;;22.32;87.58;101908.19;5056499;28;20482;-89
2022/11/03 13:56:47;;;;;;;12.77;2.07;;;;;;;22.17;88.32;101902.22;5053439;28;20534;-89
2022/11/03 13:59:35;;;;;;;14.17;2.50;;;;;;;22.16;89.17;101900.53;5047416;28;20473;-89
2022/11/03 14:02:04;;;;;;;6.73;1.50;;;;;;;22.04;88.82;101890.25;5058306;28;20441;-90
2022/11/03 14:04:53;;;;;;;8.20;1.73;;;;;;;22.09;89.80;101897.91;5047576;28;20858;-89
2022/11/03 14:07:20;;;;;;;14.60;2.00;;;;;;;22.04;89.62;101872.69;5074796;28;20495;-89
2022/11/03 14:09:48;;;;;;;19.33;2.00;;;;;;;22.19;89.71;101886.13;5041633;28;20515;-89
2022/11/03 14:12:31;;;;;;;14.77;2.43;;;;;;;22.31;90.03;101893.41;5041976;28;20446;-90
2022/11/03 14:15:07;;;;;;;14.27;2.20;;;;;;;22.54;89.69;101889.72;5060647;28;20440;-89
2022/11/03 14:17:37;;;;;;;7.73;2.00;;;;;;;22.70;88.42;101883.41;5041975;28;20451;-89
2022/11/03 14:20:05;;;;;;;8.20;1.90;;;;;;;22.93;87.29;101881.63;5042244;28;20850;-89
2022/11/03 14:22:33;;;;;;;9.60;1.50;;;;;;;23.05;86.90;101880.50;5041340;28;20449;-88
2022/11/03 14:25:01;;;;;;;14.47;2.20;;;;;;;22.93;85.83;101873.25;5041478;28;20481;-89
2022/11/03 14:27:28;;;;;;;16.90;2.50;;;;;;;22.92;85.68;101877.16;5041552;28;20475;-89
2022/11/03 14:29:56;;;;;;;11.80;1.40;;;;;;;22.90;85.94;101893.31;5041499;28;20536;-89
2022/11/03 14:32:24;;;;;;;11.83;1.60;;;;;;;22.83;86.09;101878.66;5074463;28;20437;-89
2022/11/03 14:34:51;;;;;;;10.50;1.53;;;;;;;22.89;86.55;101880.47;5041800;28;20810;-89
2022/11/03 14:37:19;;;;;;;11.93;2.30;;;;;;;22.98;86.58;101881.75;5041278;28;20481;-89
2022/11/03 14:39:47;;;;;;;12.70;1.83;;;;;;;23.08;86.39;101884.75;5041038;28;20452;-90
2022/11/03 14:42:15;;;;;;;14.40;1.60;;;;;;;23.07;86.48;101872.75;5041485;28;20434;-89
